Latest Coastal Weather Observations for Redcliffe

IDQ60701

Issued at 9:32 pm EST Friday 1 July 2016 (issued every 10 minutes, with the page automatically refreshed every 10 minutes)

About coastal observations | Map of coastal stations | Coastal observations for QLD | Marine services | Other Formats
Station Details ID: 040958 Name: REDCLIFFE Lat: -27.22 Lon: 153.09 Height: 12.6 m
Data from the previous 72 hours. | See also: Recent months at Redcliffe
Date/Time
EST
Temp
°C
Wind Pressure Rain since
9am
mm
Weather Cloud Vis
km
Sea
Height
m
Swell
Dir  Spd
kts
Gust
kts
hPa Trend Height
m
Period
s
Dir
01/09:00pm 16.3 W 9 12 1021.5 - 0.0 - - - - - - -
01/08:30pm 16.3 W 8 11 1021.5 - 0.0 - - - - - - -
01/08:00pm 16.7 W 6 8 1020.9 - 0.0 - - - - - - -
01/07:30pm 17.1 SW 6 11 1020.6 - 0.0 - - - - - - -
01/07:00pm 17.8 W 8 13 1020.4 - 0.0 - - - - - - -
01/06:30pm 17.9 WSW 7 9 1019.8 - 0.0 - - - - - - -
01/06:00pm 18.0 WSW 8 11 1019.3 - 0.0 - - - - - - -
01/05:30pm 18.4 W 6 10 1018.8 - 0.0 - - - - - - -
01/05:00pm 19.5 WSW 7 11 1018.4 - 0.0 - - - - - - -
01/04:30pm 20.5 WSW 8 13 1018.1 - 0.0 - - - - - - -
01/04:00pm 21.1 W 9 13 1017.9 - 0.0 - - - - - - -
01/03:30pm 21.4 WSW 9 14 1017.7 - 0.0 - - - - - - -
01/03:00pm 21.9 WSW 9 16 1017.5 - 0.0 - - - - - - -
01/02:30pm 21.6 W 8 12 1017.4 - 0.0 - - - - - - -
01/02:00pm 21.8 W 8 13 1017.4 - 0.0 - - - - - - -
01/01:30pm 21.3 W 9 14 1017.6 - 0.0 - - - - - - -
01/01:00pm 20.5 W 11 19 1017.9 - 0.0 - - - - - - -
01/12:30pm 20.6 W 10 15 1018.3 - 0.0 - - - - - - -
01/12:00pm 20.4 SW 14 20 1018.9 - 0.0 - - - - - - -
01/11:30am 20.1 SW 14 19 1019.2 - 0.0 - - - - - - -
01/11:00am 20.1 WSW 10 15 1019.7 - 0.0 - - - - - - -
01/10:30am 19.6 WSW 8 11 1020.1 - 0.0 - - - - - - -
01/10:00am 19.2 WSW 11 16 1020.4 - 0.0 - - - - - - -
01/09:30am 18.6 WNW 6 9 1020.6 - 0.0 - - - - - - -
01/09:00am 16.7 NW 6 6 1020.7 - 0.0 - - - - - - -
01/08:30am 16.4 WNW 7 9 1020.7 - 0.0 - - - - - - -
01/08:00am 15.3 WNW 5 7 1020.4 - 0.0 - - - - - - -
01/07:30am 14.4 NW 5 6 1020.2 - 0.0 - - - - - - -
01/07:00am 13.8 WNW 5 7 1019.9 - 0.0 - - - - - - -
01/06:30am 14.3 NW 6 8 1019.6 - 0.0 - - - - - - -
01/06:00am 12.6 WNW 4 5 1019.4 - 0.0 - - - - - - -
01/05:30am 12.8 WNW 6 8 1019.3 - 0.0 - - - - - - -
01/05:00am 13.3 NW 6 8 1018.9 - 0.0 - - - - - - -
01/04:30am 13.5 WNW 5 6 1018.8 - 0.0 - - - - - - -
01/04:00am 14.0 WNW 6 7 1018.9 - 0.0 - - - - - - -
01/03:30am 14.2 W 5 6 1019.0 - 0.0 - - - - - - -
01/03:00am 14.6 NW 5 6 1019.0 - 0.0 - - - - - - -
01/02:30am 14.4 NW 5 6 1018.9 - 0.0 - - - - - - -
01/02:00am 15.0 WNW 5 6 1019.2 - 0.0 - - - - - - -
01/01:30am 15.1 WNW 6 8 1019.4 - 0.0 - - - - - - -
01/01:00am 14.4 WNW 6 8 1019.5 - 0.0 - - - - - - -
01/12:30am 14.6 NW 6 8 1019.3 - 0.0 - - - - - - -
01/12:00am 14.8 NW 7 9 1019.5 - 0.0 - - - - - - -
 
Date/Time
EST
Temp
°C
Wind Pressure Rain since
9am
mm
Weather Cloud Vis
km
Sea
Height
m
Swell
Dir  Spd
kts
Gust
kts
hPa Trend Height
m
Period
s
Dir
30/11:30pm 14.8 NW 7 8 1019.7 - 0.0 - - - - - - -
30/11:00pm 14.7 NW 7 10 1019.8 - 0.0 - - - - - - -
30/10:30pm 14.6 NW 7 9 1020.1 - 0.0 - - - - - - -
30/10:00pm 14.7 NW 6 8 1020.6 - 0.0 - - - - - - -
30/09:30pm 14.5 NW 6 7 1020.9 - 0.0 - - - - - - -
30/09:00pm 14.7 WNW 5 6 1021.0 - 0.0 - - - - - - -
30/08:30pm 14.6 W 5 6 1021.3 - 0.0 - - - - - - -
30/08:00pm 15.1 WNW 5 6 1021.4 - 0.0 - - - - - - -
30/07:30pm 15.4 N 4 5 1021.0 - 0.0 - - - - - - -
30/07:00pm 16.3 NNE 4 4 1020.7 - 0.0 - - - - - - -
30/06:30pm 16.4 NE 3 4 1020.5 - 0.0 - - - - - - -
30/06:00pm 16.7 NE 3 4 1020.4 - 0.0 - - - - - - -
30/05:30pm 16.9 ENE 5 5 1020.2 - 0.0 - - - - - - -
30/05:00pm 17.2 E 5 5 1020.2 - 0.0 - - - - - - -
30/04:30pm 17.9 ESE 4 5 1020.2 - 0.0 - - - - - - -
30/04:00pm 18.4 ENE 5 5 1020.3 - 0.0 - - - - - - -
30/03:30pm 18.8 ENE 5 5 1020.4 - 0.0 - - - - - - -
30/03:00pm 19.1 E 4 5 1020.4 - 0.0 - - - - - - -
30/02:30pm 19.7 SE 4 4 1020.6 - 0.0 - - - - - - -
30/02:00pm 19.5 SE 4 5 1020.7 - 0.0 - - - - - - -
30/01:30pm 19.8 SSE 5 5 1021.2 - 0.0 - - - - - - -
30/01:00pm 20.2 S 6 6 1021.7 - 0.0 - - - - - - -
30/12:30pm 20.0 S 6 8 1022.1 - 0.0 - - - - - - -
30/12:00pm 20.1 S 8 9 1022.7 - 0.0 - - - - - - -
30/11:30am 19.5 S 8 10 1023.2 - 0.0 - - - - - - -
30/11:00am 18.9 S 9 10 1023.5 - 0.0 - - - - - - -
30/10:30am 19.1 S 8 9 1023.8 - 0.0 - - - - - - -
30/10:00am 17.7 SW 7 9 1024.2 - 0.0 - - - - - - -
30/09:30am 16.1 SSW 7 9 1024.2 - 0.0 - - - - - - -
30/09:00am 14.5 SW 6 7 1024.2 - 0.0 - - - - - - -
30/08:30am 12.5 WSW 5 7 1024.1 - 0.0 - - - - - - -
30/08:00am 10.8 - - - 1024.2 - 0.0 - - - - - - -
30/07:30am 9.7 - - - 1023.8 - 0.0 - - - - - - -
30/07:00am 9.1 - - - 1023.6 - 0.0 - - - - - - -
30/06:30am 9.3 - - - 1023.4 - 0.0 - - - - - - -
30/06:00am 9.6 - - - 1023.3 - 0.0 - - - - - - -
30/05:30am 9.4 - - - 1023.1 - 0.0 - - - - - - -
30/05:00am 9.3 - - - 1023.0 - 0.0 - - - - - - -
30/04:30am 8.9 - - - 1023.1 - 0.0 - - - - - - -
30/04:00am 8.9 - - - 1023.3 - 0.0 - - - - - - -
30/03:30am 9.2 - - - 1023.3 - 0.0 - - - - - - -
30/03:00am 9.4 - - - 1023.4 - 0.0 - - - - - - -
30/02:30am 9.6 SW 7 8 1023.7 - 0.0 - - - - - - -
30/02:00am 9.1 SW 7 8 1024.0 - 0.0 - - - - - - -
30/01:30am 9.2 W 7 8 1024.5 - 0.0 - - - - - - -
30/01:00am 9.8 W 7 8 1024.9 - 0.0 - - - - - - -
30/12:30am 9.6 WSW 6 8 1024.8 - 0.0 - - - - - - -
30/12:00am 10.0 WSW 8 9 1024.8 - 0.0 - - - - - - -
 
Date/Time
EST
Temp
°C
Wind Pressure Rain since
9am
mm
Weather Cloud Vis
km
Sea
Height
m
Swell
Dir  Spd
kts
Gust
kts
hPa Trend Height
m
Period
s
Dir
29/11:30pm 10.6 WSW 8 9 1025.0 - 0.0 - - - - - - -
29/11:00pm 10.9 SW 7 8 1025.2 - 0.0 - - - - - - -
29/10:30pm 11.1 WSW 7 8 1025.4 - 0.0 - - - - - - -
29/10:00pm 11.2 WSW 8 9 1025.5 - 0.0 - - - - - - -
29/09:30pm 11.8 WSW 5 7 1025.4 - 0.0 - - - - - - -
29/09:00pm 12.5 SSW 5 6 1025.4 - 0.0 - - - - - - -
29/08:30pm 13.1 SSW 4 6 1025.4 - 0.0 - - - - - - -
29/08:00pm 13.7 S 4 5 1025.5 - 0.0 - - - - - - -
29/07:30pm 14.7 SSE 4 5 1025.5 - 0.0 - - - - - - -
29/07:00pm 15.1 SE 4 5 1025.5 - 0.0 - - - - - - -
29/06:30pm 14.7 CALM 0 0 1025.3 - 0.0 - - - - - - -
29/06:00pm 15.7 CALM 0 0 1025.0 - 0.0 - - - - - - -
29/05:30pm 16.2 CALM 0 0 1024.7 - 0.0 - - - - - - -
29/05:00pm 17.4 CALM 0 0 1024.5 - 0.0 - - - - - - -
29/04:30pm 18.1 ESE 5 5 1024.3 - 0.0 - - - - - - -
29/04:00pm 18.7 ESE 5 6 1024.2 - 0.0 - - - - - - -
29/03:30pm 19.8 SE 5 5 1024.0 - 0.0 - - - - - - -
29/03:00pm 19.4 SSE 5 5 1023.8 - 0.0 - - - - - - -
29/02:30pm 19.9 S 6 6 1023.6 - 0.0 - - - - - - -
29/02:00pm 19.9 S 7 8 1023.8 - 0.0 - - - - - - -
29/01:30pm 19.6 S 7 9 1023.8 - 0.0 - - - - - - -
29/01:00pm 19.8 S 7 9 1024.0 - 0.0 - - - - - - -
29/12:30pm 19.4 S 8 11 1024.5 - 0.0 - - - - - - -
29/12:00pm 19.4 S 9 13 1024.8 - 0.0 - - - - - - -
29/11:30am 19.1 SSW 8 12 1025.5 - 0.0 - - - - - - -
29/11:00am 18.9 SSW 11 15 1025.9 - 0.0 - - - - - - -
29/10:30am 18.6 SSW 9 14 1026.2 - 0.0 - - - - - - -
29/10:00am 17.5 SSW 9 15 1026.2 - 0.0 - - - - - - -
29/09:30am 16.4 SW 9 14 1026.3 - 0.0 - - - - - - -
29/09:00am 15.0 SW 10 15 1026.2 - 0.0 - - - - - - -
29/08:30am 13.5 SW 9 11 1026.1 - 0.0 - - - - - - -
29/08:00am 11.6 - - - 1025.8 - 0.0 - - - - - - -
29/07:30am 10.2 - - - 1025.6 - 0.0 - - - - - - -
29/07:00am 8.6 - - - 1025.4 - 0.0 - - - - - - -
29/06:30am 8.0 - - - 1025.1 - 0.0 - - - - - - -
29/06:00am 8.6 - - - 1025.0 - 0.0 - - - - - - -
29/05:30am 8.5 - - - 1024.7 - 0.0 - - - - - - -
29/05:00am 8.5 - - - 1024.5 - 0.0 - - - - - - -
29/04:30am 8.7 - - - 1024.2 - 0.0 - - - - - - -
29/04:00am 9.1 - - - 1024.2 - 0.0 - - - - - - -
29/03:30am 9.3 WSW 6 8 1023.8 - 0.0 - - - - - - -
29/03:00am 9.7 WSW 7 10 1023.7 - 0.0 - - - - - - -
29/02:30am 10.2 WSW 7 10 1023.8 - 0.0 - - - - - - -
29/02:00am 10.2 WSW 8 10 1024.1 - 0.0 - - - - - - -
29/01:30am 10.5 WSW 8 11 1024.2 - 0.0 - - - - - - -
29/01:00am 10.3 WSW 8 11 1024.2 - 0.0 - - - - - - -
29/12:30am 10.6 WSW 8 11 1024.2 - 0.0 - - - - - - -
29/12:00am 10.9 WSW 7 10 1024.3 - 0.0 - - - - - - -
 
Date/Time
EST
Temp
°C
Wind Pressure Rain since
9am
mm
Weather Cloud Vis
km
Sea
Height
m
Swell
Dir  Spd
kts
Gust
kts
hPa Trend Height
m
Period
s
Dir
28/11:30pm 11.4 WSW 9 14 1024.3 - 0.0 - - - - - - -
28/11:00pm 11.8 W 8 11 1024.3 - 0.0 - - - - - - -
28/10:30pm 11.4 WSW 8 10 1024.3 - 0.0 - - - - - - -
28/10:00pm 11.1 WSW 8 11 1024.0 - 0.0 - - - - - - -

Other Formats:

Comma delimited format used in spreadsheet applications
http://www.bom.gov.au/fwo/IDQ60701/IDQ60701.95591.axf

JavaScript Object Notation format (JSON) in row-major order
http://www.bom.gov.au/fwo/IDQ60701/IDQ60701.95591.json